Time,TemperatureF,DewpointF,PressureIn,WindDirection,WindDirectionDegrees,WindSpeedMPH,WindSpeedGustMPH,Humidity,HourlyPrecipIn,Conditions,Clouds,dailyrainin,SoftwareType,DateUTC
2013-11-16 00:22:00,50.0,49.0,-100.00,ESE,121,0.0,6.0,98,0.00,,,0.21,,2013-11-16 06:22:00,
2013-11-16 00:42:00,50.0,49.0,-100.00,ESE,121,0.0,3.0,98,0.00,,,0.21,,2013-11-16 06:42:00,
2013-11-16 00:52:00,50.0,49.0,-100.00,ESE,121,0.0,3.0,98,0.00,,,0.21,,2013-11-16 06:52:00,
2013-11-16 01:22:00,51.0,50.0,-100.00,SSE,155,0.0,4.0,98,0.00,,,0.21,,2013-11-16 07:22:00,
2013-11-16 01:42:00,51.0,50.0,-100.00,ESE,121,2.0,4.0,98,0.00,,,0.21,,2013-11-16 07:42:00,
2013-11-16 01:52:00,51.0,50.0,-100.00,ESE,121,1.0,7.0,98,0.00,,,0.21,,2013-11-16 07:52:00,
2013-11-16 02:22:00,51.0,50.0,-100.00,East,98,0.0,4.0,98,0.00,,,0.21,,2013-11-16 08:22:00,
2013-11-16 02:52:00,51.0,50.0,-100.00,ESE,108,1.0,8.0,98,0.00,,,0.21,,2013-11-16 08:52:00,
2013-11-16 03:22:00,51.0,50.0,-100.00,South,178,1.0,4.0,98,0.00,,,0.21,,2013-11-16 09:22:00,
2013-11-16 03:42:00,52.0,51.0,-100.00,ESE,115,0.0,7.0,98,0.00,,,0.21,,2013-11-16 09:42:00,
2013-11-16 03:53:00,52.0,51.0,-100.00,SE,129,1.0,5.0,98,0.00,,,0.21,,2013-11-16 09:53:00,
2013-11-16 04:23:00,52.0,51.0,-100.00,SE,130,0.0,2.0,98,0.00,,,0.21,,2013-11-16 10:23:00,
2013-11-16 04:42:00,52.0,51.0,-100.00,South,169,0.0,4.0,98,0.00,,,0.21,,2013-11-16 10:42:00,
2013-11-16 04:52:00,52.0,51.0,-100.00,ESE,109,0.0,5.0,98,0.00,,,0.21,,2013-11-16 10:52:00,
2013-11-16 05:22:00,52.0,51.0,-100.00,SE,124,0.0,5.0,98,0.00,,,0.21,,2013-11-16 11:22:00,
2013-11-16 05:42:00,52.0,51.0,-100.00,ESE,104,1.0,6.0,98,0.00,,,0.21,,2013-11-16 11:42:00,
2013-11-16 05:53:00,52.0,51.0,-100.00,ESE,115,1.0,6.0,98,0.00,,,0.21,,2013-11-16 11:53:00,
2013-11-16 06:21:00,52.0,51.0,-100.00,SE,126,0.0,4.0,98,0.00,,,0.21,,2013-11-16 12:21:00,
2013-11-16 06:42:00,53.0,52.0,-100.00,ESE,118,2.0,7.0,98,0.00,,,0.21,,2013-11-16 12:42:00,
2013-11-16 06:52:00,53.0,52.0,-100.00,East,94,0.0,8.0,98,0.00,,,0.21,,2013-11-16 12:52:00,
2013-11-16 07:11:00,53.0,52.0,-100.00,East,96,1.0,7.0,98,0.00,,,0.21,,2013-11-16 13:11:00,
2013-11-16 07:22:00,53.0,52.0,-100.00,ESE,118,0.0,8.0,98,0.00,,,0.21,,2013-11-16 13:22:00,
2013-11-16 07:42:00,53.0,52.0,-100.00,East,79,0.0,6.0,98,0.00,,,0.21,,2013-11-16 13:42:00,
2013-11-16 07:52:00,54.0,53.0,-100.00,East,79,2.0,5.0,98,0.00,,,0.21,,2013-11-16 13:52:00,
2013-11-16 08:22:00,55.0,54.0,-100.00,ESE,109,2.0,9.0,98,0.00,,,0.21,,2013-11-16 14:22:00,
2013-11-16 08:42:00,55.0,54.0,-100.00,ESE,107,0.0,5.0,98,0.00,,,0.21,,2013-11-16 14:42:00,
2013-11-16 08:52:00,56.0,55.0,-100.00,ESE,117,3.0,7.0,97,0.00,,,0.21,,2013-11-16 14:52:00,
2013-11-16 09:21:00,56.0,55.0,-100.00,ESE,102,2.0,9.0,96,0.00,,,0.21,,2013-11-16 15:21:00,
2013-11-16 09:43:00,57.0,56.0,-100.00,East,101,3.0,10.0,95,0.00,,,0.21,,2013-11-16 15:43:00,
2013-11-16 09:53:00,57.0,56.0,-100.00,East,101,3.0,10.0,95,0.00,,,0.21,,2013-11-16 15:53:00,
2013-11-16 10:23:00,60.0,57.0,-100.00,SSE,151,2.0,8.0,91,0.00,,,0.21,,2013-11-16 16:23:00,
2013-11-16 10:53:00,62.0,58.0,-100.00,ESE,106,3.0,8.0,88,0.00,,,0.21,,2013-11-16 16:53:00,
2013-11-16 11:22:00,61.0,57.0,-100.00,SE,128,3.0,8.0,87,0.00,,,0.21,,2013-11-16 17:22:00,
2013-11-16 11:43:00,61.0,57.0,-100.00,ESE,119,2.0,8.0,88,0.00,,,0.21,,2013-11-16 17:43:00,
2013-11-16 11:52:00,60.0,57.0,-100.00,East,95,2.0,8.0,89,0.00,,,0.21,,2013-11-16 17:52:00,
2013-11-16 12:23:00,62.0,58.0,-100.00,SSE,164,4.0,11.0,87,0.00,,,0.21,,2013-11-16 18:23:00,
2013-11-16 12:42:00,63.0,58.0,-100.00,SSE,165,2.0,12.0,85,0.00,,,0.20,,2013-11-16 18:42:00,
2013-11-16 12:52:00,63.0,58.0,-100.00,East,91,3.0,10.0,85,0.00,,,0.20,,2013-11-16 18:52:00,
2013-11-16 13:22:00,64.0,59.0,-100.00,SE,142,4.0,10.0,85,0.00,,,0.20,,2013-11-16 19:22:00,
2013-11-16 13:42:00,64.0,59.0,-100.00,East,90,2.0,9.0,84,0.00,,,0.11,,2013-11-16 19:42:00,
2013-11-16 13:53:00,64.0,59.0,-100.00,South,188,2.0,7.0,83,0.00,,,0.11,,2013-11-16 19:53:00,
2013-11-16 14:22:00,64.0,59.0,-100.00,East,80,2.0,7.0,84,0.00,,,0.11,,2013-11-16 20:22:00,
2013-11-16 14:42:00,65.0,60.0,-100.00,ESE,111,3.0,8.0,84,0.00,,,0.05,,2013-11-16 20:42:00,
2013-11-16 15:21:00,65.0,60.0,-100.00,ESE,121,1.0,10.0,84,0.00,,,0.05,,2013-11-16 21:21:00,
2013-11-16 15:44:00,65.0,60.0,-100.00,ESE,110,2.0,11.0,84,0.00,,,0.00,,2013-11-16 21:44:00,
2013-11-16 15:54:00,64.0,59.0,-100.00,South,169,0.0,7.0,84,0.00,,,0.00,,2013-11-16 21:54:00,
2013-11-16 16:24:00,64.0,59.0,-100.00,South,170,5.0,10.0,85,0.00,,,0.00,,2013-11-16 22:24:00,
2013-11-16 16:53:00,64.0,60.0,-100.00,SE,130,1.0,8.0,86,0.00,,,0.00,,2013-11-16 22:53:00,
2013-11-16 17:22:00,63.0,59.0,-100.00,ESE,121,2.0,12.0,86,0.00,,,0.00,,2013-11-16 23:22:00,
2013-11-16 17:43:00,63.0,59.0,-100.00,SE,139,1.0,10.0,86,0.00,,,0.00,,2013-11-16 23:43:00,
2013-11-16 17:53:00,63.0,59.0,-100.00,East,91,3.0,7.0,86,0.00,,,0.00,,2013-11-16 23:53:00,
2013-11-16 18:12:00,63.0,59.0,-100.00,SE,133,4.0,10.0,87,0.00,,,0.00,,2013-11-17 00:12:00,
2013-11-16 18:22:00,63.0,59.0,-100.00,East,89,3.0,8.0,87,0.00,,,0.00,,2013-11-17 00:22:00,
2013-11-16 18:42:00,63.0,59.0,-100.00,SSE,153,2.0,10.0,87,0.00,,,0.00,,2013-11-17 00:42:00,
2013-11-16 18:52:00,63.0,59.0,-100.00,East,96,3.0,11.0,87,0.00,,,0.00,,2013-11-17 00:52:00,
2013-11-16 19:22:00,62.0,58.0,-100.00,East,90,3.0,10.0,87,0.00,,,0.00,,2013-11-17 01:22:00,
2013-11-16 19:52:00,62.0,58.0,-100.00,ESE,118,3.0,11.0,87,0.00,,,0.00,,2013-11-17 01:52:00,
2013-11-16 20:22:00,62.0,58.0,-100.00,South,177,3.0,12.0,87,0.00,,,0.00,,2013-11-17 02:22:00,
2013-11-16 20:52:00,62.0,58.0,-100.00,East,100,4.0,15.0,87,0.00,,,0.00,,2013-11-17 02:52:00,
2013-11-16 21:22:00,62.0,58.0,-100.00,ESE,108,3.0,12.0,86,0.00,,,0.00,,2013-11-17 03:22:00,
2013-11-16 21:56:00,62.0,58.0,-100.00,SSW,194,4.0,15.0,86,0.00,,,0.00,,2013-11-17 03:56:00,
2013-11-16 22:02:00,-999.0,-99.9,-100.00,ESE,117,4.0,10.0,-999,-99.99,,,-99.99,,2013-11-17 04:02:00,
2013-11-16 22:24:00,62.0,58.0,-100.00,South,183,4.0,9.0,86,0.00,,,0.00,,2013-11-17 04:24:00,
2013-11-16 22:43:00,62.0,58.0,-100.00,SE,142,2.0,9.0,86,0.00,,,0.00,,2013-11-17 04:43:00,
2013-11-16 22:53:00,62.0,58.0,-100.00,SSW,194,3.0,11.0,87,0.00,,,0.00,,2013-11-17 04:53:00,
2013-11-16 23:23:00,62.0,58.0,-100.00,South,181,1.0,11.0,87,0.00,,,0.00,,2013-11-17 05:23:00,
2013-11-16 23:53:00,62.0,58.0,-100.00,SE,128,4.0,12.0,87,0.00,,,0.00,,2013-11-17 05:53:00,